createdAt,value
2022-09-11T00:01:44.369Z,22.00
2022-09-11T00:04:12.354Z,22.00
2022-09-11T00:06:40.931Z,22.00
2022-09-11T00:09:09.324Z,22.00
2022-09-11T00:11:42.066Z,21.90
2022-09-11T00:14:14.627Z,21.90
2022-09-11T00:16:45.042Z,21.90
2022-09-11T00:19:19.637Z,21.90
2022-09-11T00:21:49.279Z,21.90
2022-09-11T00:24:17.728Z,21.90
2022-09-11T00:26:47.783Z,21.90
2022-09-11T00:29:17.107Z,21.90
2022-09-11T00:31:45.334Z,21.90
2022-09-11T00:34:13.339Z,21.80
2022-09-11T00:36:43.145Z,21.80
2022-09-11T00:39:12.952Z,21.80
2022-09-11T00:41:44.875Z,21.80
2022-09-11T00:45:01.884Z,21.70
2022-09-11T00:47:32.162Z,21.70
2022-09-11T00:50:12.193Z,21.70
2022-09-11T00:52:53.117Z,21.70
2022-09-11T00:55:27.244Z,21.70
2022-09-11T00:58:00.897Z,21.70
2022-09-11T01:00:30.873Z,21.70
2022-09-11T01:03:00.044Z,21.70
2022-09-11T01:05:33.115Z,21.70
2022-09-11T01:08:03.805Z,21.70
2022-09-11T01:10:47.511Z,21.60
2022-09-11T01:13:28.864Z,21.60
2022-09-11T01:16:09.683Z,21.60
2022-09-11T01:18:49.128Z,21.60
2022-09-11T01:21:53.341Z,21.60
2022-09-11T01:24:45.020Z,21.60
2022-09-11T01:27:43.061Z,21.50
2022-09-11T01:30:15.717Z,21.50
2022-09-11T01:33:17.269Z,21.50
2022-09-11T01:36:00.590Z,21.50
2022-09-11T01:38:37.709Z,21.50
2022-09-11T01:41:14.356Z,21.50
2022-09-11T01:43:51.376Z,21.50
2022-09-11T01:46:24.337Z,21.50
2022-09-11T01:49:06.672Z,21.50
2022-09-11T01:51:39.127Z,21.50
2022-09-11T01:54:15.616Z,21.50
2022-09-11T01:56:52.924Z,21.40
2022-09-11T01:59:32.609Z,21.40
2022-09-11T02:02:06.911Z,21.40
2022-09-11T02:04:41.242Z,21.40
2022-09-11T02:07:16.759Z,21.40
2022-09-11T02:09:54.037Z,21.40
2022-09-11T02:12:30.078Z,21.40
2022-09-11T02:15:03.005Z,21.40
2022-09-11T02:17:43.684Z,21.40
2022-09-11T02:20:12.371Z,21.40
2022-09-11T02:22:40.535Z,21.40
2022-09-11T02:25:09.687Z,21.40
2022-09-11T02:27:37.657Z,21.40
2022-09-11T02:30:09.539Z,21.40
2022-09-11T02:32:40.702Z,21.40
2022-09-11T02:35:10.993Z,21.30
2022-09-11T02:37:59.210Z,21.30
2022-09-11T02:40:55.295Z,21.30
2022-09-11T02:43:44.929Z,21.30
2022-09-11T02:46:38.926Z,21.30
2022-09-11T02:49:20.113Z,21.30
2022-09-11T02:52:00.124Z,21.20
2022-09-11T02:54:41.737Z,21.20
2022-09-11T02:57:19.172Z,21.20
2022-09-11T02:59:54.554Z,21.20
2022-09-11T03:02:25.577Z,21.20
2022-09-11T03:04:53.986Z,21.20
2022-09-11T03:07:22.010Z,21.20
2022-09-11T03:09:50.004Z,21.20
2022-09-11T03:12:21.904Z,21.20
2022-09-11T03:14:51.747Z,21.20
2022-09-11T03:17:20.797Z,21.20
2022-09-11T03:19:50.570Z,21.20
2022-09-11T03:22:19.598Z,21.20
2022-09-11T03:24:48.069Z,21.20
2022-09-11T03:27:17.163Z,21.20
2022-09-11T03:29:46.537Z,21.20
2022-09-11T03:32:16.119Z,21.20
2022-09-11T03:34:44.115Z,21.20
2022-09-11T03:37:13.352Z,21.20
2022-09-11T03:39:41.810Z,21.10
2022-09-11T03:42:12.217Z,21.20
2022-09-11T03:44:41.042Z,21.10
2022-09-11T03:47:13.352Z,21.10
2022-09-11T03:49:41.441Z,21.10
2022-09-11T03:52:09.416Z,21.10
2022-09-11T03:54:39.766Z,21.10
2022-09-11T03:57:09.698Z,21.10
2022-09-11T03:59:39.328Z,21.10
2022-09-11T04:02:07.429Z,21.10
2022-09-11T04:04:36.976Z,21.10
2022-09-11T04:07:05.699Z,21.10
2022-09-11T04:09:34.513Z,21.00
2022-09-11T04:12:04.225Z,21.00
2022-09-11T04:14:32.802Z,21.00
2022-09-11T04:17:00.862Z,21.00
2022-09-11T04:19:30.437Z,21.00
2022-09-11T04:21:58.442Z,21.00
2022-09-11T04:24:26.609Z,21.00
2022-09-11T04:26:59.988Z,21.00
2022-09-11T04:29:32.521Z,21.00
2022-09-11T04:32:00.675Z,21.00
2022-09-11T04:34:31.975Z,21.00
2022-09-11T04:37:00.535Z,20.90
2022-09-11T04:39:30.862Z,20.90
2022-09-11T04:41:59.434Z,20.90
2022-09-11T04:44:32.462Z,20.90
2022-09-11T04:47:01.275Z,20.90
2022-09-11T04:49:29.721Z,20.90
2022-09-11T04:52:02.793Z,20.90
2022-09-11T04:54:31.321Z,20.90
2022-09-11T04:56:59.254Z,20.90
2022-09-11T04:59:28.648Z,20.90
2022-09-11T05:02:08.501Z,20.90
2022-09-11T05:04:41.672Z,20.90
2022-09-11T05:07:13.354Z,20.90
2022-09-11T05:09:43.469Z,20.90
2022-09-11T05:12:12.115Z,20.90
2022-09-11T05:14:40.218Z,20.90
2022-09-11T05:17:09.521Z,20.90
2022-09-11T05:19:41.898Z,20.90
2022-09-11T05:22:10.040Z,20.90
2022-09-11T05:24:41.878Z,20.90
2022-09-11T05:27:10.069Z,20.90
2022-09-11T05:29:39.173Z,20.90
2022-09-11T05:32:13.687Z,20.90
2022-09-11T05:34:42.798Z,20.90
2022-09-11T05:37:14.300Z,20.90
2022-09-11T05:39:45.919Z,20.90
2022-09-11T05:42:16.199Z,20.90
2022-09-11T05:44:48.959Z,20.90
2022-09-11T05:47:18.809Z,20.90
2022-09-11T05:49:50.587Z,20.90
2022-09-11T05:52:18.708Z,20.90
2022-09-11T05:54:47.037Z,20.90
2022-09-11T05:57:16.093Z,20.90
2022-09-11T05:59:44.572Z,20.90
2022-09-11T06:02:14.305Z,20.90
2022-09-11T06:04:52.034Z,20.90
2022-09-11T06:07:21.579Z,20.90
2022-09-11T06:09:51.344Z,20.90
2022-09-11T06:12:19.420Z,20.90
2022-09-11T06:14:49.135Z,20.90
2022-09-11T06:17:17.221Z,20.90
2022-09-11T06:19:45.920Z,20.90
2022-09-11T06:22:15.274Z,20.90
2022-09-11T06:24:45.453Z,21.00
2022-09-11T06:27:13.375Z,21.00
2022-09-11T06:29:45.241Z,21.00
2022-09-11T06:32:13.839Z,21.00
2022-09-11T06:34:42.348Z,21.00
2022-09-11T06:37:15.057Z,21.00
2022-09-11T06:39:43.082Z,21.00
2022-09-11T06:42:18.968Z,21.00
2022-09-11T06:44:50.759Z,21.10
2022-09-11T06:47:19.357Z,21.10
2022-09-11T06:49:47.644Z,21.10
2022-09-11T06:52:28.899Z,21.10
2022-09-11T06:55:13.321Z,21.10
2022-09-11T06:57:42.402Z,21.10
2022-09-11T07:00:15.774Z,21.10
2022-09-11T07:02:45.195Z,21.10
2022-09-11T07:05:14.594Z,21.20
2022-09-11T07:07:46.324Z,21.20
2022-09-11T07:10:14.776Z,21.20
2022-09-11T07:12:43.589Z,21.20
2022-09-11T07:15:12.775Z,21.20
2022-09-11T07:17:41.314Z,21.20
2022-09-11T07:20:11.902Z,21.20
2022-09-11T07:22:40.608Z,21.30
2022-09-11T07:25:10.601Z,21.30
2022-09-11T07:27:42.149Z,21.30
2022-09-11T07:30:13.669Z,21.30
2022-09-11T07:32:44.038Z,21.30
2022-09-11T07:35:12.951Z,21.30
2022-09-11T07:37:40.860Z,21.30
2022-09-11T07:40:12.156Z,21.30
2022-09-11T07:42:41.150Z,21.30
2022-09-11T07:45:10.120Z,21.40
2022-09-11T07:47:38.539Z,21.40
2022-09-11T07:50:08.013Z,21.40
2022-09-11T07:52:37.637Z,21.40
2022-09-11T07:55:08.215Z,21.40
2022-09-11T07:57:38.383Z,21.40
2022-09-11T08:00:12.209Z,21.40
2022-09-11T08:02:49.469Z,21.40
2022-09-11T08:05:26.661Z,21.50
2022-09-11T08:07:55.134Z,21.50
2022-09-11T08:10:27.664Z,21.60
2022-09-11T08:12:59.809Z,21.60
2022-09-11T08:15:31.249Z,21.70
2022-09-11T08:17:59.208Z,21.80
2022-09-11T08:20:27.403Z,21.90
2022-09-11T08:22:55.417Z,22.00
2022-09-11T08:25:23.912Z,22.10
2022-09-11T08:27:53.116Z,22.20
2022-09-11T08:30:25.211Z,22.20
2022-09-11T08:32:53.287Z,22.30
2022-09-11T08:35:22.284Z,22.40
2022-09-11T08:37:54.716Z,22.50
2022-09-11T08:40:23.663Z,22.50
2022-09-11T08:42:53.075Z,22.60
2022-09-11T08:45:29.525Z,22.60
2022-09-11T08:48:01.223Z,22.60
2022-09-11T08:50:39.984Z,22.60
2022-09-11T08:53:16.323Z,22.60
2022-09-11T08:55:50.546Z,22.60
2022-09-11T08:58:33.620Z,22.60
2022-09-11T09:01:15.643Z,22.60
2022-09-11T09:04:06.798Z,22.50
2022-09-11T09:06:54.323Z,22.50
2022-09-11T09:09:37.159Z,22.50
2022-09-11T09:12:16.039Z,22.50
2022-09-11T09:15:08.792Z,22.50
2022-09-11T09:17:43.365Z,22.50
2022-09-11T09:20:21.097Z,22.50
2022-09-11T09:22:57.303Z,22.40
2022-09-11T09:25:28.965Z,22.50
2022-09-11T09:28:07.633Z,22.40
2022-09-11T09:30:45.815Z,22.40
2022-09-11T09:33:30.769Z,22.40
2022-09-11T09:36:13.772Z,22.40
2022-09-11T09:38:41.746Z,22.50
2022-09-11T09:41:49.798Z,22.40
2022-09-11T09:44:38.249Z,22.40
2022-09-11T09:47:12.598Z,22.40
2022-09-11T09:49:44.068Z,22.40
2022-09-11T09:52:19.185Z,22.40
2022-09-11T09:54:56.796Z,22.40
2022-09-11T09:57:30.156Z,22.40
2022-09-11T10:00:06.459Z,22.40
2022-09-11T10:02:43.283Z,22.40
2022-09-11T10:05:25.905Z,22.30
2022-09-11T10:07:57.725Z,22.40
2022-09-11T10:10:30.024Z,22.40
2022-09-11T10:13:18.592Z,22.40
2022-09-11T10:15:50.513Z,22.40
2022-09-11T10:18:43.875Z,22.30
2022-09-11T10:21:29.481Z,22.30
2022-09-11T10:23:59.891Z,22.30
2022-09-11T10:26:34.685Z,22.30
2022-09-11T10:29:10.210Z,22.30
2022-09-11T10:31:42.512Z,22.30
2022-09-11T10:34:21.162Z,22.30
2022-09-11T10:37:01.990Z,22.30
2022-09-11T10:39:33.223Z,22.30
2022-09-11T10:42:16.533Z,22.30
2022-09-11T10:44:47.433Z,22.30
2022-09-11T10:47:19.358Z,22.30
2022-09-11T10:49:47.803Z,22.30
2022-09-11T10:52:22.238Z,22.30
2022-09-11T10:55:04.605Z,22.30
2022-09-11T10:57:43.839Z,22.30
2022-09-11T11:00:20.107Z,22.30
2022-09-11T11:02:53.280Z,22.30
2022-09-11T11:05:27.948Z,22.30
2022-09-11T11:08:33.180Z,22.30
2022-09-11T11:11:25.606Z,22.30
2022-09-11T11:14:13.198Z,22.30
2022-09-11T11:16:57.604Z,22.20
2022-09-11T11:19:56.271Z,22.20
2022-09-11T11:22:49.407Z,22.20
2022-09-11T11:25:28.945Z,22.20
2022-09-11T11:28:22.373Z,22.20
2022-09-11T11:31:01.953Z,22.20
2022-09-11T11:34:03.570Z,22.20
2022-09-11T11:36:40.542Z,22.30
2022-09-11T11:39:23.420Z,22.20
2022-09-11T11:42:08.487Z,22.20
2022-09-11T11:44:46.607Z,22.30
2022-09-11T11:47:17.548Z,22.30
2022-09-11T11:49:59.782Z,22.30
2022-09-11T11:52:41.635Z,22.30
2022-09-11T11:55:20.715Z,22.20
2022-09-11T11:58:01.947Z,22.20
2022-09-11T12:00:34.312Z,22.30
2022-09-11T12:03:12.080Z,22.30
2022-09-11T12:05:40.418Z,22.30
2022-09-11T12:08:14.375Z,22.30
2022-09-11T12:10:56.583Z,22.20
2022-09-11T12:13:32.614Z,22.30
2022-09-11T12:16:13.248Z,22.30
2022-09-11T12:18:43.568Z,22.30
2022-09-11T12:21:42.508Z,22.20
2022-09-11T12:24:20.937Z,22.20
2022-09-11T12:27:28.710Z,22.20
2022-09-11T12:30:08.809Z,22.20
2022-09-11T12:32:45.933Z,22.20
2022-09-11T12:35:21.099Z,22.20
2022-09-11T12:37:58.225Z,22.20
2022-09-11T12:40:43.721Z,22.20
2022-09-11T12:43:31.542Z,22.20
2022-09-11T12:46:02.113Z,22.20
2022-09-11T12:48:42.673Z,22.20
2022-09-11T12:51:22.661Z,22.20
2022-09-11T12:53:55.408Z,22.20
2022-09-11T12:56:26.491Z,22.30
2022-09-11T12:58:59.193Z,22.30
2022-09-11T13:01:33.063Z,22.30
2022-09-11T13:04:15.909Z,22.30
2022-09-11T13:06:48.465Z,22.30
2022-09-11T13:09:23.942Z,22.30
2022-09-11T13:11:55.080Z,22.30
2022-09-11T13:14:56.666Z,22.20
2022-09-11T13:17:30.242Z,22.30
2022-09-11T13:20:20.561Z,22.30
2022-09-11T13:22:49.005Z,22.30
2022-09-11T13:25:20.274Z,22.30
2022-09-11T13:27:51.691Z,22.30
2022-09-11T13:30:23.203Z,22.40
2022-09-11T13:33:06.368Z,22.30
2022-09-11T13:35:35.700Z,22.40
2022-09-11T13:38:10.026Z,22.40
2022-09-11T13:40:47.229Z,22.40
2022-09-11T13:43:20.720Z,22.40
2022-09-11T13:45:48.890Z,22.40
2022-09-11T13:48:24.357Z,22.40
2022-09-11T13:50:53.832Z,22.40
2022-09-11T13:53:23.700Z,22.40
2022-09-11T13:55:51.709Z,22.40
2022-09-11T13:58:25.045Z,22.40
2022-09-11T14:00:55.442Z,22.40
2022-09-11T14:03:30.394Z,22.40
2022-09-11T14:06:00.958Z,22.40
2022-09-11T14:08:34.311Z,22.40
2022-09-11T14:11:11.157Z,22.40
2022-09-11T14:13:47.155Z,22.40
2022-09-11T14:16:27.206Z,22.40
2022-09-11T14:19:01.505Z,22.40
2022-09-11T14:21:36.109Z,22.40
2022-09-11T14:24:25.015Z,22.40
2022-09-11T14:26:53.651Z,22.50
2022-09-11T14:29:28.107Z,22.40
2022-09-11T14:32:31.568Z,22.40
2022-09-11T14:35:01.957Z,22.40
2022-09-11T14:37:34.633Z,22.40
2022-09-11T14:40:07.726Z,22.40
2022-09-11T14:42:37.947Z,22.40
2022-09-11T14:45:09.929Z,22.40
2022-09-11T14:47:38.082Z,22.50
2022-09-11T14:50:12.032Z,22.50
2022-09-11T14:52:42.379Z,22.50
2022-09-11T14:55:15.486Z,22.40
2022-09-11T14:57:43.407Z,22.50
2022-09-11T15:00:15.153Z,22.50
2022-09-11T15:02:43.043Z,22.50
2022-09-11T15:05:19.097Z,22.50
2022-09-11T15:07:47.068Z,22.50
2022-09-11T15:10:16.653Z,22.50
2022-09-11T15:12:44.820Z,22.50
2022-09-11T15:15:17.640Z,22.50
2022-09-11T15:17:46.141Z,22.50
2022-09-11T15:20:15.356Z,22.50
2022-09-11T15:22:44.313Z,22.50
2022-09-11T15:25:12.260Z,22.50
2022-09-11T15:27:40.417Z,22.50
2022-09-11T15:30:09.525Z,22.50
2022-09-11T15:32:38.737Z,22.50
2022-09-11T15:35:07.910Z,22.50
2022-09-11T15:37:37.110Z,22.50
2022-09-11T15:40:06.288Z,22.50
2022-09-11T15:42:39.554Z,22.50
2022-09-11T15:45:09.996Z,22.50
2022-09-11T15:47:37.910Z,22.50
2022-09-11T15:50:07.798Z,22.50
2022-09-11T15:52:38.137Z,22.50
2022-09-11T15:55:07.744Z,22.50
2022-09-11T15:57:36.763Z,22.50
2022-09-11T16:00:05.966Z,22.50
2022-09-11T16:02:39.864Z,22.50
2022-09-11T16:05:08.595Z,22.50
2022-09-11T16:07:37.795Z,22.50
2022-09-11T16:10:06.815Z,22.50
2022-09-11T16:12:34.793Z,22.50
2022-09-11T16:15:02.842Z,22.50
2022-09-11T16:17:32.387Z,22.50
2022-09-11T16:20:00.532Z,22.50
2022-09-11T16:22:31.327Z,22.50
2022-09-11T16:25:00.622Z,22.50
2022-09-11T16:27:28.833Z,22.50
2022-09-11T16:30:26.227Z,22.50
2022-09-11T16:32:45.287Z,22.50
2022-09-11T16:35:14.138Z,22.50
2022-09-11T16:37:42.191Z,22.50
2022-09-11T16:40:11.867Z,22.50
2022-09-11T16:42:39.974Z,22.50
2022-09-11T16:45:08.945Z,22.50
2022-09-11T16:47:36.953Z,22.50
2022-09-11T16:50:07.833Z,22.50
2022-09-11T16:52:36.864Z,22.50
2022-09-11T16:55:07.312Z,22.50
2022-09-11T16:57:37.196Z,22.50
2022-09-11T17:00:07.625Z,22.50
2022-09-11T17:02:37.383Z,22.50
2022-09-11T17:05:06.022Z,22.50
2022-09-11T17:07:33.912Z,22.50
2022-09-11T17:10:01.901Z,22.50
2022-09-11T17:12:29.810Z,22.50
2022-09-11T17:14:58.974Z,22.50
2022-09-11T17:17:26.879Z,22.50
2022-09-11T17:19:54.806Z,22.50
2022-09-11T17:22:22.669Z,22.50
2022-09-11T17:24:50.498Z,22.50
2022-09-11T17:27:18.405Z,22.50
2022-09-11T17:29:47.220Z,22.50
2022-09-11T17:32:29.078Z,22.50
2022-09-11T17:34:58.335Z,22.40
2022-09-11T17:37:27.386Z,22.40
2022-09-11T17:39:55.653Z,22.40
2022-09-11T17:42:23.783Z,22.40
2022-09-11T17:44:51.843Z,22.40
2022-09-11T17:47:21.131Z,22.40
2022-09-11T17:49:49.934Z,22.40
2022-09-11T17:52:19.034Z,22.40
2022-09-11T17:54:47.364Z,22.40
2022-09-11T17:57:15.943Z,22.40
2022-09-11T17:59:44.539Z,22.40
2022-09-11T18:02:15.383Z,22.30
2022-09-11T18:04:44.898Z,22.40
2022-09-11T18:07:12.791Z,22.40
2022-09-11T18:09:40.864Z,22.40
2022-09-11T18:12:09.927Z,22.40
2022-09-11T18:14:39.581Z,22.30
2022-09-11T18:17:07.800Z,22.30
2022-09-11T18:19:36.023Z,22.30
2022-09-11T18:22:06.073Z,22.30
2022-09-11T18:24:34.539Z,22.30
2022-09-11T18:27:02.650Z,22.30
2022-09-11T18:29:30.752Z,22.30
2022-09-11T18:32:00.325Z,22.30
2022-09-11T18:34:31.148Z,22.30
2022-09-11T18:37:00.111Z,22.30
2022-09-11T18:39:33.873Z,22.30
2022-09-11T18:42:01.999Z,22.30
2022-09-11T18:44:30.118Z,22.30
2022-09-11T18:46:58.743Z,22.30
2022-09-11T18:49:26.993Z,22.30
2022-09-11T18:51:54.894Z,22.30
2022-09-11T18:54:23.166Z,22.30
2022-09-11T18:56:52.675Z,22.30
2022-09-11T18:59:21.325Z,22.30
2022-09-11T19:01:49.333Z,22.30
2022-09-11T19:04:17.420Z,22.30
2022-09-11T19:06:46.301Z,22.30
2022-09-11T19:09:14.774Z,22.20
2022-09-11T19:11:43.328Z,22.30
2022-09-11T19:14:13.593Z,22.20
2022-09-11T19:16:42.335Z,22.20
2022-09-11T19:19:10.691Z,22.20
2022-09-11T19:21:39.803Z,22.20
2022-09-11T19:24:08.493Z,22.20
2022-09-11T19:26:38.821Z,22.20
2022-09-11T19:29:08.467Z,22.20
2022-09-11T19:31:39.535Z,22.20
2022-09-11T19:34:09.569Z,22.20
2022-09-11T19:36:37.548Z,22.20
2022-09-11T19:39:06.723Z,22.20
2022-09-11T19:41:38.562Z,22.20
2022-09-11T19:44:09.008Z,22.20
2022-09-11T19:46:38.414Z,22.20
2022-09-11T19:49:07.869Z,22.20
2022-09-11T19:51:38.559Z,22.20
2022-09-11T19:54:07.877Z,22.20
2022-09-11T19:56:38.451Z,22.10
2022-09-11T19:59:07.504Z,22.20
2022-09-11T20:01:35.777Z,22.10
2022-09-11T20:04:05.720Z,22.10
2022-09-11T20:06:35.640Z,22.10
2022-09-11T20:09:30.796Z,22.10
2022-09-11T20:11:53.641Z,22.10
2022-09-11T20:14:21.665Z,22.10
2022-09-11T20:16:49.521Z,22.10
2022-09-11T20:19:20.059Z,22.10
2022-09-11T20:21:48.034Z,22.10
2022-09-11T20:24:15.950Z,22.10
2022-09-11T20:26:44.003Z,22.10
2022-09-11T20:29:15.781Z,22.10
2022-09-11T20:31:48.688Z,22.10
2022-09-11T20:34:20.046Z,22.10
2022-09-11T20:36:48.857Z,22.10
2022-09-11T20:39:17.406Z,22.10
2022-09-11T20:41:45.679Z,22.10
2022-09-11T20:44:13.709Z,22.10
2022-09-11T20:46:43.506Z,22.10
2022-09-11T20:49:12.079Z,22.10
2022-09-11T20:51:41.342Z,22.00
2022-09-11T20:54:09.774Z,22.00
2022-09-11T20:56:37.808Z,22.00
2022-09-11T20:59:05.758Z,22.00
2022-09-11T21:01:34.587Z,22.00
2022-09-11T21:04:05.469Z,22.00
2022-09-11T21:06:35.841Z,22.00
2022-09-11T21:09:09.127Z,21.90
2022-09-11T21:11:38.215Z,22.00
2022-09-11T21:14:06.883Z,22.00
2022-09-11T21:16:35.489Z,21.90
2022-09-11T21:19:05.150Z,21.90
2022-09-11T21:21:35.389Z,21.90
2022-09-11T21:24:07.930Z,21.90
2022-09-11T21:26:37.430Z,21.90
2022-09-11T21:29:08.821Z,21.90
2022-09-11T21:31:37.109Z,21.90
2022-09-11T21:34:05.102Z,21.90
2022-09-11T21:36:33.463Z,21.90
2022-09-11T21:39:01.314Z,21.90
2022-09-11T21:41:30.568Z,21.80
2022-09-11T21:43:58.639Z,21.80
2022-09-11T21:46:26.678Z,21.80
2022-09-11T21:48:54.593Z,21.80
2022-09-11T21:51:23.212Z,21.80
2022-09-11T21:53:58.132Z,21.80
2022-09-11T21:56:30.215Z,21.80
2022-09-11T21:59:00.559Z,21.80
2022-09-11T22:01:29.766Z,21.80
2022-09-11T22:03:59.956Z,21.80
2022-09-11T22:06:28.315Z,21.80
2022-09-11T22:08:57.083Z,21.80
2022-09-11T22:11:26.350Z,21.80
2022-09-11T22:13:54.465Z,21.70
2022-09-11T22:16:23.937Z,21.70
2022-09-11T22:18:54.674Z,21.70
2022-09-11T22:21:22.634Z,21.70
2022-09-11T22:23:50.740Z,21.70
2022-09-11T22:26:21.039Z,21.70
2022-09-11T22:28:49.379Z,21.70
2022-09-11T22:31:21.118Z,21.60
2022-09-11T22:33:50.647Z,21.70
2022-09-11T22:36:23.384Z,21.60
2022-09-11T22:38:52.010Z,21.60
2022-09-11T22:41:20.824Z,21.60
2022-09-11T22:43:50.021Z,21.60
2022-09-11T22:46:20.705Z,21.60
2022-09-11T22:48:50.272Z,21.60
2022-09-11T22:51:18.349Z,21.60
2022-09-11T22:53:46.845Z,21.60
2022-09-11T22:56:15.535Z,21.60
2022-09-11T22:58:43.791Z,21.60
2022-09-11T23:01:19.678Z,21.60
2022-09-11T23:03:51.615Z,21.50
2022-09-11T23:06:37.929Z,21.50
2022-09-11T23:09:06.478Z,21.50
2022-09-11T23:11:34.397Z,21.50
2022-09-11T23:14:02.277Z,21.50
2022-09-11T23:16:30.511Z,21.50
2022-09-11T23:19:04.785Z,21.50
2022-09-11T23:21:35.520Z,21.50
2022-09-11T23:24:06.169Z,21.50
2022-09-11T23:26:34.461Z,21.50
2022-09-11T23:29:02.397Z,21.40
2022-09-11T23:31:32.979Z,21.40
2022-09-11T23:34:06.439Z,21.40
2022-09-11T23:36:35.474Z,21.40
2022-09-11T23:39:04.461Z,21.40
2022-09-11T23:41:35.025Z,21.40
2022-09-11T23:44:03.525Z,21.40
2022-09-11T23:46:31.572Z,21.40
2022-09-11T23:48:59.619Z,21.40
2022-09-11T23:51:28.908Z,21.30
2022-09-11T23:53:56.835Z,21.40
2022-09-11T23:56:24.783Z,21.30
2022-09-11T23:58:52.690Z,21.30
